Portada
METAR-TAF:

METAR-TAF

Aeropuertos :

Aeropuerto Internacional de la Región de Murcia

Murcia, Corvera, España

latitud: 37-48-13N, longitud: 1-07-27W, altitud: 193 m

Observación

El informe se hizo hace 39 minutos, a las 10:00 UTC
Viento 9 kt del norte
Temperatura 23°C
Humedad 73%
Presión 1014 hPa
Visibilidad 10 km o más
Escasas nubes a una altura de 2400 ft
Nubes dispersas a una altura de 3500 ft
Escasas nubes a una altura de 4000 ft, Cumulonimbus.
tormenta en las proximidades

METAR: LEMI 141000Z 35009KT 9999 VCTS FEW024 SCT035 FEW040CB 23/18 Q1014

Hora: 12:39 (10:39 UTC)


TAF: falta

Observaciones y pronósticos meteorológicos de más de 4000 aeropuertos (mensajes METAR y TAF).

Los puntos amarillos y rojos representan las estaciones disponibles.

Ponga el ratón en el punto deseado para ver el nombre de la estación.

Haga clic para ver las observaciones y los pronósticos meteorológicos.

Para cambiar el mapa : haga clic en los botones verdes con una cruz de color negro para hacer un zoom, en el botón verde con un guión para alejar o en las flechas verdes para mapas adyacentes.


METAR-TAF: